Time;durP1;ratioP1;P1;durP2;ratioP2;P2;SDS_P1;SDS_P2;PMS_P1;PMS_P2;Temp;Humidity;BMP_temperature;BMP_pressure;BME280_temperature;BME280_humidity;BME280_pressure;Samples;Min_cycle;Max_cycle;Signal;HPM_P1;HPM_P2
2022/03/15 00:02:03;;;;;;;1.10;0.77;;;23.50;39.20;;;;;;4997611;28;20029;-67
2022/03/15 00:04:29;;;;;;;1.73;0.93;;;23.50;39.20;;;;;;4999547;28;20076;-67
2022/03/15 00:06:56;;;;;;;1.30;0.80;;;23.50;39.30;;;;;;5001750;28;20022;-65
2022/03/15 00:09:22;;;;;;;1.35;0.70;;;23.50;39.30;;;;;;5000649;28;20026;-65
2022/03/15 00:11:47;;;;;;;1.20;0.80;;;23.50;39.30;;;;;;5001846;28;20076;-67
2022/03/15 00:14:14;;;;;;;1.58;0.90;;;23.50;39.30;;;;;;4998640;28;20096;-66
2022/03/15 00:16:41;;;;;;;1.67;0.80;;;23.40;39.30;;;;;;5004517;28;20022;-69
2022/03/15 00:19:07;;;;;;;1.30;0.75;;;23.40;39.30;;;;;;5009184;28;20046;-68
2022/03/15 00:21:33;;;;;;;1.15;0.80;;;23.40;39.20;;;;;;5001150;28;20041;-68
2022/03/15 00:23:59;;;;;;;1.40;0.90;;;23.40;39.30;;;;;;4999709;28;20038;-68
2022/03/15 00:26:28;;;;;;;1.98;0.80;;;23.40;39.30;;;;;;5001382;28;20434;-67
2022/03/15 00:28:53;;;;;;;1.95;1.00;;;23.40;39.40;;;;;;4999084;28;20037;-68
2022/03/15 00:31:19;;;;;;;1.08;0.70;;;23.40;39.30;;;;;;5018373;28;20030;-64
2022/03/15 00:33:45;;;;;;;1.15;0.80;;;23.30;39.30;;;;;;4999717;28;20459;-66
2022/03/15 00:36:11;;;;;;;1.02;0.80;;;23.30;39.30;;;;;;5001424;28;20124;-69
2022/03/15 00:38:37;;;;;;;1.45;0.80;;;23.30;39.40;;;;;;5003453;28;20044;-67
2022/03/15 00:41:03;;;;;;;1.17;0.73;;;23.30;39.40;;;;;;5007196;28;20443;-64
2022/03/15 00:43:29;;;;;;;1.30;0.82;;;23.20;39.40;;;;;;5005615;28;20026;-66
2022/03/15 00:45:55;;;;;;;1.00;0.70;;;23.20;39.40;;;;;;5005219;28;20065;-65
2022/03/15 00:48:21;;;;;;;1.45;0.80;;;23.20;39.40;;;;;;5008579;28;20113;-69
2022/03/15 00:50:46;;;;;;;1.67;0.80;;;23.20;39.40;;;;;;5009204;28;20131;-69
2022/03/15 00:53:12;;;;;;;1.15;0.70;;;23.20;39.40;;;;;;5004741;28;20128;-66
2022/03/15 00:55:38;;;;;;;1.65;0.80;;;23.10;39.40;;;;;;5006922;28;20087;-68
2022/03/15 00:58:05;;;;;;;1.13;0.75;;;23.10;39.40;;;;;;5003812;28;20033;-65
2022/03/15 01:00:31;;;;;;;1.17;0.80;;;23.10;39.50;;;;;;5004590;28;20142;-66
2022/03/15 01:02:57;;;;;;;1.17;0.90;;;23.10;39.40;;;;;;5005155;28;20033;-68
2022/03/15 01:05:23;;;;;;;1.27;0.80;;;23.10;39.50;;;;;;5005864;28;20073;-69
2022/03/15 01:07:48;;;;;;;0.90;0.68;;;23.10;39.50;;;;;;5005890;28;20351;-68
2022/03/15 01:10:14;;;;;;;1.30;0.80;;;23.10;39.50;;;;;;5000324;28;20141;-69
2022/03/15 01:12:40;;;;;;;1.65;0.90;;;23.10;39.50;;;;;;5003939;28;20056;-65
2022/03/15 01:15:07;;;;;;;1.10;0.80;;;23.00;39.50;;;;;;5005440;28;20410;-67
2022/03/15 01:17:34;;;;;;;1.10;0.70;;;23.00;39.50;;;;;;5005484;28;20183;-66
2022/03/15 01:19:59;;;;;;;1.70;0.90;;;23.00;39.50;;;;;;5004089;28;20324;-63
2022/03/15 01:22:25;;;;;;;0.93;0.70;;;23.00;39.50;;;;;;5005541;28;20104;-67
2022/03/15 01:24:51;;;;;;;1.65;0.80;;;23.00;39.60;;;;;;5004542;28;20069;-64
2022/03/15 01:27:19;;;;;;;1.08;0.80;;;22.90;39.50;;;;;;5005191;28;20327;-62
2022/03/15 01:29:44;;;;;;;1.10;0.80;;;22.90;39.50;;;;;;5006793;28;20049;-64
2022/03/15 01:32:10;;;;;;;1.42;0.82;;;22.90;39.60;;;;;;5001809;28;20037;-67
2022/03/15 01:34:36;;;;;;;1.45;0.80;;;22.90;39.60;;;;;;5004611;28;20557;-69
2022/03/15 01:37:02;;;;;;;1.50;0.75;;;22.90;39.60;;;;;;4998414;28;20025;-68
2022/03/15 01:39:27;;;;;;;1.23;0.80;;;22.90;39.60;;;;;;5003211;28;20037;-69
2022/03/15 01:41:53;;;;;;;1.35;0.85;;;22.90;39.60;;;;;;5004056;28;20483;-67
2022/03/15 01:44:22;;;;;;;1.40;0.80;;;22.90;39.60;;;;;;5006376;28;20038;-69
2022/03/15 01:46:50;;;;;;;1.38;0.80;;;22.80;39.50;;;;;;5005139;28;20040;-66
2022/03/15 01:49:16;;;;;;;1.58;0.85;;;22.80;39.50;;;;;;5003482;28;20183;-66
2022/03/15 01:51:43;;;;;;;1.17;0.75;;;22.80;39.50;;;;;;5003190;28;20086;-68
2022/03/15 01:54:12;;;;;;;0.77;0.70;;;22.80;39.60;;;;;;5001683;28;20037;-63
2022/03/15 01:56:42;;;;;;;0.85;0.70;;;22.80;39.60;;;;;;5002627;28;20033;-66
2022/03/15 01:59:15;;;;;;;1.75;1.00;;;22.80;39.60;;;;;;5003380;28;20477;-69
2022/03/15 02:01:41;;;;;;;1.20;0.80;;;22.80;39.60;;;;;;4998805;28;20045;-69
2022/03/15 02:04:08;;;;;;;1.33;0.80;;;22.80;39.60;;;;;;5002729;28;20053;-68
2022/03/15 02:06:39;;;;;;;0.98;0.77;;;22.80;39.60;;;;;;5001286;28;20038;-66
2022/03/15 02:09:13;;;;;;;1.25;0.90;;;22.80;40.20;;;;;;4999461;28;20936;-68
2022/03/15 02:11:43;;;;;;;1.08;0.70;;;22.70;39.60;;;;;;5004321;28;20040;-64
2022/03/15 02:14:08;;;;;;;;;;;22.70;39.60;;;;;;5000451;28;20340;-63
2022/03/15 02:16:34;;;;;;;1.75;1.00;;;22.70;39.60;;;;;;5003664;28;19923;-64
2022/03/15 02:19:01;;;;;;;1.60;0.80;;;22.70;40.20;;;;;;5001487;28;20074;-69
2022/03/15 02:21:27;;;;;;;1.17;0.75;;;22.70;39.70;;;;;;5003561;28;20040;-63
2022/03/15 02:23:53;;;;;;;1.17;0.80;;;22.60;39.60;;;;;;4999687;28;20145;-67
2022/03/15 02:26:19;;;;;;;1.38;0.88;;;22.70;39.70;;;;;;4998616;28;20030;-62
2022/03/15 02:28:44;;;;;;;1.17;0.80;;;22.60;39.60;;;;;;5004809;28;20560;-66
2022/03/15 02:31:10;;;;;;;0.80;0.65;;;22.60;39.70;;;;;;5004260;28;20834;-65
2022/03/15 02:33:36;;;;;;;0.82;0.70;;;22.60;39.70;;;;;;5006386;28;20041;-66
2022/03/15 02:36:01;;;;;;;1.10;0.70;;;22.60;39.70;;;;;;5004579;28;20041;-65
2022/03/15 02:38:27;;;;;;;1.30;0.73;;;22.60;39.70;;;;;;5002556;28;20029;-65
2022/03/15 02:40:53;;;;;;;0.70;0.60;;;22.60;39.70;;;;;;5002847;28;20132;-62
2022/03/15 02:43:18;;;;;;;1.67;0.90;;;22.60;39.70;;;;;;5019930;28;20520;-66
2022/03/15 02:45:44;;;;;;;1.58;0.95;;;22.60;39.80;;;;;;5005632;28;20078;-65
2022/03/15 02:48:10;;;;;;;1.67;0.82;;;22.50;39.70;;;;;;5005420;28;20539;-65
2022/03/15 02:50:35;;;;;;;1.35;0.80;;;22.60;39.80;;;;;;5005387;28;21339;-66
2022/03/15 02:53:01;;;;;;;1.08;0.70;;;22.50;39.70;;;;;;5003735;28;20076;-66
2022/03/15 02:55:27;;;;;;;1.50;0.80;;;22.50;39.70;;;;;;5001508;28;20374;-65
2022/03/15 02:57:53;;;;;;;1.33;0.80;;;22.50;39.70;;;;;;5004418;28;20033;-63
2022/03/15 03:00:20;;;;;;;2.33;0.80;;;22.50;39.80;;;;;;5003060;28;20052;-62
2022/03/15 03:02:46;;;;;;;1.33;0.70;;;22.50;39.80;;;;;;5003559;28;20124;-67
2022/03/15 03:05:12;;;;;;;0.95;0.70;;;22.50;39.80;;;;;;5004100;28;20069;-65
2022/03/15 03:07:38;;;;;;;1.33;0.90;;;22.40;39.70;;;;;;5006657;28;20159;-66
2022/03/15 03:10:05;;;;;;;1.38;0.90;;;22.50;39.80;;;;;;5001012;28;20038;-66
2022/03/15 03:12:32;;;;;;;1.40;0.90;;;22.50;39.80;;;;;;5001401;28;20021;-65
2022/03/15 03:14:58;;;;;;;1.20;0.77;;;22.50;39.70;;;;;;5005710;28;20045;-66
2022/03/15 03:17:24;;;;;;;1.60;0.80;;;22.40;39.70;;;;;;4997757;28;20522;-66
2022/03/15 03:19:50;;;;;;;0.88;0.80;;;22.50;39.80;;;;;;5005034;28;20439;-65
2022/03/15 03:22:16;;;;;;;0.93;0.70;;;22.40;39.80;;;;;;4996948;28;20191;-62
2022/03/15 03:24:42;;;;;;;1.42;0.80;;;22.40;39.80;;;;;;5002019;28;20022;-62
2022/03/15 03:27:13;;;;;;;1.48;0.80;;;22.40;39.80;;;;;;4999427;28;20084;-68
2022/03/15 03:29:40;;;;;;;1.33;0.73;;;22.40;39.80;;;;;;5002332;28;20033;-65
2022/03/15 03:32:06;;;;;;;1.10;0.77;;;22.40;39.80;;;;;;4993894;28;20089;-67
2022/03/15 03:34:32;;;;;;;1.33;0.70;;;22.40;39.80;;;;;;4996470;28;20033;-68
2022/03/15 03:36:57;;;;;;;1.13;0.80;;;22.40;39.80;;;;;;5000704;28;20423;-63
2022/03/15 03:39:24;;;;;;;1.25;0.70;;;22.30;39.80;;;;;;5001113;28;20038;-65
2022/03/15 03:41:50;;;;;;;1.15;0.70;;;22.30;39.80;;;;;;5016764;28;20515;-66
2022/03/15 03:44:15;;;;;;;1.15;0.80;;;22.40;39.90;;;;;;5003298;28;20113;-64
2022/03/15 03:46:41;;;;;;;0.63;0.60;;;22.30;39.80;;;;;;5001556;28;20417;-66
2022/03/15 03:49:07;;;;;;;1.20;0.70;;;22.30;39.80;;;;;;5004945;28;20083;-68
2022/03/15 03:51:33;;;;;;;1.40;0.88;;;22.30;39.90;;;;;;5000681;28;20470;-66
2022/03/15 03:53:58;;;;;;;1.00;0.70;;;22.30;39.90;;;;;;4998520;28;20561;-68
2022/03/15 03:56:24;;;;;;;1.30;0.80;;;22.30;39.90;;;;;;5000974;28;20065;-65
2022/03/15 03:58:49;;;;;;;1.05;0.80;;;22.30;39.90;;;;;;5002687;28;20045;-67
2022/03/15 04:01:15;;;;;;;1.27;0.70;;;22.30;39.90;;;;;;4998003;28;20494;-68
2022/03/15 04:03:40;;;;;;;1.38;0.80;;;22.30;39.90;;;;;;5001116;28;20040;-66
2022/03/15 04:06:06;;;;;;;1.08;0.80;;;22.30;39.90;;;;;;5002352;28;20076;-65
2022/03/15 04:08:32;;;;;;;1.02;0.75;;;22.20;39.90;;;;;;5001765;28;20551;-68
2022/03/15 04:10:58;;;;;;;1.00;0.70;;;22.30;39.90;;;;;;4999856;28;20033;-65
2022/03/15 04:13:26;;;;;;;1.08;0.68;;;22.20;39.90;;;;;;4999295;28;20033;-68
2022/03/15 04:15:51;;;;;;;0.82;0.68;;;22.20;39.90;;;;;;5003623;28;20856;-67
2022/03/15 04:18:17;;;;;;;1.33;0.70;;;22.20;40.00;;;;;;5001380;28;20033;-66
2022/03/15 04:20:43;;;;;;;0.93;0.60;;;22.20;40.00;;;;;;4998319;28;20037;-65
2022/03/15 04:23:10;;;;;;;0.68;0.60;;;22.10;40.00;;;;;;4996102;28;20034;-66
2022/03/15 04:25:36;;;;;;;1.00;0.70;;;22.20;40.10;;;;;;5000798;28;20046;-66
2022/03/15 04:28:01;;;;;;;0.90;0.70;;;22.10;40.00;;;;;;4994282;28;20356;-65
2022/03/15 04:30:28;;;;;;;0.93;0.70;;;22.10;40.00;;;;;;4998809;28;20137;-65
2022/03/15 04:32:53;;;;;;;0.77;0.60;;;22.10;40.00;;;;;;4998539;28;20053;-66
2022/03/15 04:35:19;;;;;;;0.80;0.60;;;22.10;40.00;;;;;;4998339;28;20057;-66
2022/03/15 04:37:45;;;;;;;1.08;0.60;;;22.10;40.10;;;;;;5002622;28;20041;-62
2022/03/15 04:40:12;;;;;;;0.73;0.70;;;22.10;40.10;;;;;;4999792;28;20034;-65
2022/03/15 04:42:37;;;;;;;1.40;0.63;;;22.10;40.20;;;;;;5001521;28;20505;-63
2022/03/15 04:45:03;;;;;;;0.80;0.70;;;22.10;40.20;;;;;;5002318;28;20056;-64
2022/03/15 04:47:29;;;;;;;0.90;0.70;;;22.10;40.30;;;;;;5002565;28;20046;-64
2022/03/15 04:49:55;;;;;;;0.90;0.70;;;22.10;40.30;;;;;;5004348;28;20439;-62
2022/03/15 04:52:21;;;;;;;1.15;0.70;;;22.00;40.20;;;;;;4999204;28;20049;-65
2022/03/15 04:54:46;;;;;;;1.08;0.70;;;22.00;40.30;;;;;;4999728;28;20062;-66
2022/03/15 04:57:12;;;;;;;0.75;0.70;;;22.00;40.30;;;;;;4996631;28;20029;-67
2022/03/15 04:59:38;;;;;;;1.17;0.70;;;22.00;40.30;;;;;;4997644;28;20034;-67
2022/03/15 05:02:03;;;;;;;1.00;0.77;;;22.00;40.30;;;;;;5000403;28;20038;-67
2022/03/15 05:04:29;;;;;;;1.20;0.70;;;22.00;40.40;;;;;;4999735;28;20034;-65
2022/03/15 05:06:55;;;;;;;1.00;0.70;;;22.00;40.40;;;;;;5003369;28;20064;-66
2022/03/15 05:09:20;;;;;;;0.93;0.70;;;22.00;40.40;;;;;;5001274;28;20552;-67
2022/03/15 05:11:49;;;;;;;2.35;0.93;;;22.00;40.40;;;;;;5001136;28;20509;-66
2022/03/15 05:14:15;;;;;;;1.08;0.80;;;22.00;40.40;;;;;;5000358;28;20615;-68
2022/03/15 05:16:41;;;;;;;1.92;0.88;;;22.00;40.40;;;;;;5002619;28;20101;-64
2022/03/15 05:19:07;;;;;;;1.30;0.70;;;22.00;40.40;;;;;;5002233;28;20030;-66
2022/03/15 05:21:33;;;;;;;1.20;0.80;;;22.00;40.40;;;;;;5001442;28;20111;-66
2022/03/15 05:23:58;;;;;;;1.20;0.73;;;22.00;40.40;;;;;;5001799;28;20037;-66
2022/03/15 05:26:24;;;;;;;1.17;0.70;;;22.00;40.40;;;;;;5004434;28;20513;-62
2022/03/15 05:28:51;;;;;;;2.05;0.90;;;22.00;40.50;;;;;;5016521;28;20026;-65
2022/03/15 05:31:19;;;;;;;1.20;0.80;;;22.00;40.40;;;;;;5002613;28;20057;-65
2022/03/15 05:33:46;;;;;;;1.23;0.73;;;21.90;40.40;;;;;;5005716;28;20036;-65
2022/03/15 05:36:13;;;;;;;1.70;0.90;;;21.90;40.40;;;;;;5006129;28;20022;-66
2022/03/15 05:38:39;;;;;;;2.22;0.95;;;21.90;40.50;;;;;;5004433;28;20025;-68
2022/03/15 05:41:08;;;;;;;1.40;0.80;;;21.90;40.40;;;;;;5006054;28;20038;-64
2022/03/15 05:43:37;;;;;;;1.55;0.82;;;21.90;40.40;;;;;;4999068;28;20037;-64
2022/03/15 05:46:04;;;;;;;1.20;0.80;;;21.90;40.40;;;;;;5021996;28;20049;-65
2022/03/15 05:48:30;;;;;;;1.42;0.73;;;21.90;40.50;;;;;;5005340;28;20176;-67
2022/03/15 05:50:55;;;;;;;1.50;1.00;;;21.90;40.50;;;;;;4997023;28;20546;-66
2022/03/15 05:53:21;;;;;;;1.80;0.90;;;21.90;40.50;;;;;;4994289;28;20533;-67
2022/03/15 05:55:46;;;;;;;1.58;0.75;;;21.90;40.50;;;;;;5003700;28;20053;-64
2022/03/15 05:58:14;;;;;;;1.73;0.85;;;21.90;40.50;;;;;;5002112;28;21188;-63
2022/03/15 06:00:40;;;;;;;1.85;0.90;;;21.90;40.50;;;;;;4997190;28;20217;-65
2022/03/15 06:03:06;;;;;;;1.48;1.00;;;21.90;40.50;;;;;;4992413;28;20033;-66
2022/03/15 06:05:31;;;;;;;1.20;0.80;;;21.90;40.60;;;;;;4993399;28;20040;-66
2022/03/15 06:07:57;;;;;;;1.77;0.90;;;21.90;40.60;;;;;;4999487;28;20042;-67
2022/03/15 06:10:23;;;;;;;1.55;1.05;;;21.90;40.60;;;;;;5003433;28;20109;-65
2022/03/15 06:12:50;;;;;;;2.15;1.00;;;21.90;40.60;;;;;;4996788;28;20507;-66
2022/03/15 06:15:17;;;;;;;1.85;0.70;;;21.90;40.60;;;;;;4997163;28;20052;-66
2022/03/15 06:17:43;;;;;;;1.27;0.88;;;21.90;40.50;;;;;;4994709;28;20061;-64
2022/03/15 06:20:12;;;;;;;1.95;0.88;;;21.90;40.50;;;;;;4995691;28;20521;-67
2022/03/15 06:22:38;;;;;;;1.40;0.80;;;21.90;40.40;;;;;;4997626;28;20029;-66
2022/03/15 06:25:04;;;;;;;1.40;0.73;;;21.90;40.40;;;;;;4994894;28;20041;-66
2022/03/15 06:27:30;;;;;;;2.13;1.00;;;21.90;40.40;;;;;;4997567;28;20367;-62
2022/03/15 06:29:56;;;;;;;1.98;0.85;;;21.90;40.40;;;;;;5005002;28;20030;-67
2022/03/15 06:32:22;;;;;;;1.67;0.88;;;21.90;40.50;;;;;;5000388;28;20034;-67
2022/03/15 06:34:48;;;;;;;2.65;1.00;;;21.90;40.40;;;;;;5002947;28;20426;-66
2022/03/15 06:37:14;;;;;;;2.67;1.27;;;21.90;40.50;;;;;;5001758;28;20105;-66
2022/03/15 06:39:39;;;;;;;2.45;1.10;;;21.90;40.50;;;;;;4999491;28;20374;-67
2022/03/15 06:42:09;;;;;;;2.20;1.08;;;21.90;40.60;;;;;;5002577;28;20041;-66
2022/03/15 06:44:35;;;;;;;2.13;1.10;;;21.90;40.60;;;;;;5000231;28;20041;-66
2022/03/15 06:47:01;;;;;;;2.95;1.40;;;21.90;40.70;;;;;;5000859;28;20080;-65
2022/03/15 06:49:27;;;;;;;2.60;1.05;;;21.90;40.90;;;;;;5002626;28;20026;-65
2022/03/15 06:51:52;;;;;;;3.03;1.17;;;21.90;41.10;;;;;;5003018;28;20105;-63
2022/03/15 06:54:18;;;;;;;2.53;1.30;;;21.80;41.00;;;;;;5003455;28;20580;-65
2022/03/15 06:56:43;;;;;;;2.28;1.20;;;21.80;41.00;;;;;;5004306;28;20056;-65
2022/03/15 06:59:09;;;;;;;2.55;1.20;;;21.80;40.90;;;;;;5004146;28;20152;-66
2022/03/15 07:01:35;;;;;;;2.75;1.23;;;21.80;41.40;;;;;;5003645;28;20123;-65
2022/03/15 07:04:00;;;;;;;2.38;1.20;;;21.80;40.90;;;;;;4998061;28;20045;-65
2022/03/15 07:06:26;;;;;;;2.53;1.25;;;21.80;40.90;;;;;;5012493;28;20098;-65
2022/03/15 07:08:51;;;;;;;1.60;0.90;;;21.80;40.90;;;;;;4999599;28;20463;-65
2022/03/15 07:11:17;;;;;;;2.75;1.10;;;21.80;40.90;;;;;;5000117;28;20052;-66
2022/03/15 07:13:43;;;;;;;2.70;1.33;;;21.80;40.90;;;;;;5003376;28;20060;-66
2022/03/15 07:16:08;;;;;;;2.88;1.30;;;21.80;40.90;;;;;;5019991;28;20112;-65
2022/03/15 07:18:34;;;;;;;2.97;1.20;;;21.80;40.90;;;;;;5005129;28;20044;-65
2022/03/15 07:20:59;;;;;;;2.45;1.20;;;21.80;40.80;;;;;;5001361;28;20038;-65
2022/03/15 07:23:25;;;;;;;3.10;1.27;;;21.80;40.90;;;;;;5002579;28;20065;-65
2022/03/15 07:25:51;;;;;;;3.55;1.42;;;21.80;40.90;;;;;;5003432;28;20044;-65
2022/03/15 07:28:16;;;;;;;2.70;1.27;;;21.80;40.90;;;;;;5003911;28;20477;-65
2022/03/15 07:30:42;;;;;;;2.28;1.10;;;21.80;40.90;;;;;;5001303;28;20523;-65
2022/03/15 07:33:08;;;;;;;2.47;1.20;;;21.80;40.90;;;;;;5002910;28;20070;-65
2022/03/15 07:35:33;;;;;;;2.63;1.30;;;21.80;40.90;;;;;;5004340;28;20030;-65
2022/03/15 07:37:59;;;;;;;2.70;1.17;;;21.80;40.90;;;;;;5003690;28;20095;-65
2022/03/15 07:40:26;;;;;;;3.10;1.30;;;21.70;40.80;;;;;;5001328;28;20049;-62
2022/03/15 07:42:52;;;;;;;2.97;1.40;;;21.70;40.80;;;;;;5002485;28;20026;-65
2022/03/15 07:45:18;;;;;;;3.55;1.35;;;21.70;41.40;;;;;;5003827;28;20033;-62
2022/03/15 07:47:47;;;;;;;2.90;1.20;;;21.80;40.90;;;;;;5004010;28;20022;-67
2022/03/15 07:50:13;;;;;;;3.00;1.50;;;21.70;40.90;;;;;;5003796;28;20033;-63
2022/03/15 07:52:39;;;;;;;2.95;1.30;;;21.70;40.90;;;;;;5001803;28;20032;-65
2022/03/15 07:55:05;;;;;;;2.95;1.30;;;21.80;40.90;;;;;;5016632;28;20034;-62
2022/03/15 07:57:31;;;;;;;3.05;1.48;;;21.70;40.80;;;;;;5003437;28;20041;-67
2022/03/15 07:59:56;;;;;;;3.03;1.25;;;21.70;40.90;;;;;;5002667;28;20449;-66
2022/03/15 08:02:22;;;;;;;3.45;1.50;;;21.70;40.90;;;;;;5001903;28;20510;-65
2022/03/15 08:04:48;;;;;;;2.20;1.20;;;21.70;40.90;;;;;;5002675;28;20027;-66
2022/03/15 08:07:13;;;;;;;3.35;1.40;;;21.70;40.90;;;;;;5004419;28;20029;-65
2022/03/15 08:09:40;;;;;;;3.67;1.58;;;21.70;40.90;;;;;;5001547;28;20030;-65
2022/03/15 08:12:06;;;;;;;2.75;1.20;;;21.70;40.90;;;;;;5000462;28;20026;-65
2022/03/15 08:14:31;;;;;;;3.65;1.60;;;21.70;41.40;;;;;;5002374;28;20030;-63
2022/03/15 08:16:59;;;;;;;3.42;1.40;;;21.70;40.90;;;;;;5001898;28;20092;-66
2022/03/15 08:19:26;;;;;;;2.63;1.05;;;21.70;40.90;;;;;;5001362;28;20137;-62
2022/03/15 08:21:52;;;;;;;2.30;1.10;;;21.70;40.90;;;;;;5000306;28;20386;-66
2022/03/15 08:24:20;;;;;;;2.22;1.20;;;21.70;40.90;;;;;;4996165;28;20026;-63
2022/03/15 08:26:46;;;;;;;2.88;1.25;;;21.70;40.90;;;;;;5002686;28;20420;-66
2022/03/15 08:29:14;;;;;;;3.00;1.40;;;21.70;40.90;;;;;;5003553;28;20030;-65
2022/03/15 08:31:40;;;;;;;2.78;1.15;;;21.70;40.90;;;;;;5000664;28;20034;-63
2022/03/15 08:34:05;;;;;;;1.98;1.17;;;21.70;40.90;;;;;;5000095;28;20093;-65
2022/03/15 08:36:31;;;;;;;2.65;1.20;;;21.70;40.90;;;;;;5003778;28;20053;-65
2022/03/15 08:38:56;;;;;;;2.50;1.20;;;21.70;40.90;;;;;;5002477;28;20037;-66
2022/03/15 08:41:22;;;;;;;2.95;1.23;;;21.70;40.90;;;;;;5002339;28;20030;-65
2022/03/15 08:43:47;;;;;;;2.88;1.40;;;21.60;40.80;;;;;;5001380;28;20037;-63
2022/03/15 08:46:13;;;;;;;3.08;1.27;;;21.60;40.80;;;;;;5004256;28;20121;-69
2022/03/15 08:48:39;;;;;;;2.47;1.20;;;21.60;40.80;;;;;;5003267;28;20383;-63
2022/03/15 08:51:05;;;;;;;2.90;1.33;;;21.70;41.40;;;;;;5001881;28;20040;-66
2022/03/15 08:53:32;;;;;;;2.42;1.27;;;21.60;40.90;;;;;;5000108;28;20109;-65
2022/03/15 08:55:58;;;;;;;2.88;1.40;;;21.70;40.90;;;;;;5001772;28;20127;-64
2022/03/15 08:58:24;;;;;;;3.10;1.25;;;21.60;40.90;;;;;;5002451;28;20036;-65
2022/03/15 09:00:50;;;;;;;2.58;1.17;;;21.60;40.90;;;;;;5004746;28;20406;-62
2022/03/15 09:03:17;;;;;;;2.88;1.50;;;21.60;40.90;;;;;;5005136;28;20045;-65
2022/03/15 09:05:43;;;;;;;2.75;1.30;;;21.60;40.90;;;;;;5006289;28;20033;-66
2022/03/15 09:08:08;;;;;;;2.55;1.20;;;21.60;40.90;;;;;;5002816;28;20505;-63
2022/03/15 09:10:34;;;;;;;2.58;1.10;;;21.60;40.90;;;;;;5005212;28;20110;-66
2022/03/15 09:13:00;;;;;;;2.58;1.13;;;21.60;40.90;;;;;;5006079;28;20107;-65
2022/03/15 09:15:25;;;;;;;2.30;1.20;;;21.60;40.90;;;;;;5004243;28;20030;-65
2022/03/15 09:17:51;;;;;;;3.33;1.33;;;21.60;40.90;;;;;;5007596;28;20137;-62
2022/03/15 09:20:17;;;;;;;2.88;1.30;;;21.60;40.90;;;;;;5005683;28;20076;-65
2022/03/15 09:22:43;;;;;;;2.00;1.10;;;21.60;40.90;;;;;;5005984;28;20025;-66
2022/03/15 09:25:09;;;;;;;2.13;1.05;;;21.60;40.90;;;;;;5001608;28;20513;-63
2022/03/15 09:27:35;;;;;;;2.63;1.30;;;21.60;40.90;;;;;;5006873;28;20045;-66
2022/03/15 09:30:02;;;;;;;2.50;1.20;;;21.60;41.50;;;;;;5007524;28;20053;-65
2022/03/15 09:32:27;;;;;;;2.70;1.10;;;21.60;40.90;;;;;;5005334;28;20030;-66
2022/03/15 09:34:55;;;;;;;2.05;1.10;;;21.60;40.90;;;;;;5004695;28;20431;-63
2022/03/15 09:37:21;;;;;;;2.97;1.40;;;21.50;40.80;;;;;;5007540;28;20026;-66
2022/03/15 09:39:47;;;;;;;2.13;1.10;;;21.60;41.00;;;;;;5003584;28;20524;-65
2022/03/15 09:42:13;;;;;;;2.78;1.35;;;21.50;40.90;;;;;;5019251;28;20047;-66
2022/03/15 09:44:40;;;;;;;1.90;1.40;;;21.60;40.90;;;;;;5005907;28;20030;-65
2022/03/15 09:47:07;;;;;;;2.15;1.17;;;21.60;41.00;;;;;;5005196;28;20034;-65
2022/03/15 09:49:37;;;;;;;2.80;1.27;;;21.50;40.90;;;;;;5021431;28;20061;-65
2022/03/15 09:52:07;;;;;;;2.33;1.27;;;21.50;41.50;;;;;;5004059;28;20033;-65
2022/03/15 09:54:33;;;;;;;2.97;1.20;;;21.60;41.00;;;;;;5001986;28;20087;-62
2022/03/15 09:56:59;;;;;;;2.67;1.27;;;21.60;41.00;;;;;;5006046;28;20432;-62
2022/03/15 09:59:26;;;;;;;2.47;1.27;;;21.50;40.90;;;;;;5003801;28;20030;-65
2022/03/15 10:01:54;;;;;;;2.80;1.20;;;21.60;41.50;;;;;;5004273;28;20042;-65
2022/03/15 10:04:22;;;;;;;2.40;1.20;;;21.50;40.90;;;;;;5005887;28;20037;-65
2022/03/15 10:06:48;;;;;;;3.97;1.20;;;21.50;40.90;;;;;;5006906;28;20072;-67
2022/03/15 10:09:14;;;;;;;2.00;1.02;;;21.50;40.90;;;;;;5001458;28;20081;-62
2022/03/15 10:11:41;;;;;;;1.92;1.10;;;21.50;40.90;;;;;;5003034;28;20094;-64
2022/03/15 10:14:08;;;;;;;2.03;1.20;;;21.50;40.90;;;;;;5005358;28;20057;-65
2022/03/15 10:16:36;;;;;;;1.98;1.08;;;21.50;40.90;;;;;;5006361;28;20025;-64
2022/03/15 10:19:03;;;;;;;3.47;1.30;;;21.50;41.50;;;;;;5003876;28;20025;-66
2022/03/15 10:21:50;;;;;;;1.92;1.10;;;21.50;40.90;;;;;;5003346;28;20109;-66
2022/03/15 10:24:22;;;;;;;2.17;1.10;;;21.50;40.90;;;;;;5015996;28;20034;-65
2022/03/15 10:26:50;;;;;;;2.03;1.20;;;21.50;40.90;;;;;;5005259;28;20033;-65
2022/03/15 10:29:17;;;;;;;2.20;1.00;;;21.50;40.90;;;;;;5003778;28;20033;-65
2022/03/15 10:31:44;;;;;;;2.00;1.20;;;21.50;40.90;;;;;;5005085;28;20046;-65
2022/03/15 10:34:11;;;;;;;2.17;1.17;;;21.40;40.90;;;;;;5004608;28;20026;-62
2022/03/15 10:36:44;;;;;;;2.33;1.17;;;21.50;40.90;;;;;;5005879;28;20117;-65
2022/03/15 10:39:12;;;;;;;2.72;1.20;;;21.50;40.90;;;;;;5003348;28;20584;-65
2022/03/15 10:41:51;;;;;;;2.85;1.20;;;21.50;40.90;;;;;;5003202;28;20505;-67
2022/03/15 10:44:18;;;;;;;2.17;1.05;;;21.50;41.00;;;;;;5019060;28;20034;-66
2022/03/15 10:46:44;;;;;;;2.15;1.10;;;21.50;40.90;;;;;;5004565;28;20029;-63
2022/03/15 10:49:09;;;;;;;2.08;1.10;;;21.50;41.00;;;;;;5003186;28;20476;-67
2022/03/15 10:51:36;;;;;;;2.38;1.17;;;21.50;40.90;;;;;;5003732;28;20030;-62
2022/03/15 10:54:03;;;;;;;1.92;1.20;;;21.50;41.00;;;;;;5002863;28;20030;-62
2022/03/15 10:56:30;;;;;;;2.28;1.20;;;21.50;41.00;;;;;;5002269;28;20039;-63
2022/03/15 10:59:05;;;;;;;2.40;1.10;;;21.50;41.00;;;;;;5004439;28;20049;-62
2022/03/15 11:01:40;;;;;;;1.95;1.02;;;21.50;41.00;;;;;;5002623;28;20060;-66
2022/03/15 11:04:11;;;;;;;2.47;1.20;;;21.50;41.00;;;;;;5003690;28;20040;-65
2022/03/15 11:06:44;;;;;;;1.83;1.00;;;21.40;40.90;;;;;;5004723;28;20034;-63
2022/03/15 11:09:23;;;;;;;2.05;1.10;;;21.50;41.00;;;;;;5002765;28;20033;-62
2022/03/15 11:12:09;;;;;;;2.42;1.20;;;21.50;41.00;;;;;;4997944;28;20029;-65
2022/03/15 11:14:41;;;;;;;2.33;1.20;;;21.50;41.00;;;;;;4999141;28;20088;-67
2022/03/15 11:17:16;;;;;;;2.00;1.30;;;21.50;41.00;;;;;;4999841;28;20052;-64
2022/03/15 11:19:53;;;;;;;2.28;1.08;;;21.40;40.90;;;;;;4994954;28;20470;-64
2022/03/15 11:22:22;;;;;;;2.85;1.10;;;21.50;41.00;;;;;;5000449;28;20109;-66
2022/03/15 11:25:02;;;;;;;2.40;0.95;;;21.40;41.00;;;;;;4998370;28;20014;-65
2022/03/15 11:27:31;;;;;;;2.10;1.10;;;21.50;41.00;;;;;;5014245;28;20072;-65
2022/03/15 11:30:02;;;;;;;2.45;1.10;;;21.40;41.00;;;;;;5001166;28;20030;-66
2022/03/15 11:32:33;;;;;;;2.15;1.00;;;21.40;41.00;;;;;;5001402;28;20029;-66
2022/03/15 11:34:59;;;;;;;2.08;1.10;;;21.40;41.00;;;;;;4999735;28;20049;-64
2022/03/15 11:37:26;;;;;;;1.95;1.10;;;21.40;41.00;;;;;;4996959;28;20030;-64
2022/03/15 11:39:53;;;;;;;2.00;1.00;;;21.40;41.00;;;;;;4999741;28;20068;-66
2022/03/15 11:42:19;;;;;;;1.58;1.10;;;21.50;41.00;;;;;;4997913;28;20903;-63
2022/03/15 11:45:11;;;;;;;2.78;1.25;;;21.40;41.00;;;;;;5000641;28;20372;-66
2022/03/15 11:47:43;;;;;;;2.38;1.30;;;21.40;41.00;;;;;;4999445;28;20092;-65
2022/03/15 11:50:27;;;;;;;1.92;1.00;;;21.40;41.00;;;;;;5001646;28;20026;-65
2022/03/15 11:53:05;;;;;;;1.83;0.88;;;21.40;41.00;;;;;;5000596;28;20070;-67
2022/03/15 11:55:37;;;;;;;2.05;1.10;;;21.40;41.20;;;;;;4999849;28;20318;-66
2022/03/15 11:58:07;;;;;;;2.42;1.08;;;21.40;41.00;;;;;;5012374;28;20358;-62
2022/03/15 12:00:37;;;;;;;2.28;1.10;;;21.40;41.00;;;;;;4999415;28;20037;-66
2022/03/15 12:03:08;;;;;;;1.70;1.08;;;21.40;41.00;;;;;;5017091;28;20087;-65
2022/03/15 12:06:15;;;;;;;1.85;1.13;;;21.40;41.00;;;;;;5001309;28;20041;-66
2022/03/15 12:08:43;;;;;;;2.45;1.10;;;21.40;41.00;;;;;;4968471;28;20046;-65
2022/03/15 12:11:08;;;;;;;1.77;1.08;;;21.40;41.00;;;;;;4999988;28;20087;-66
2022/03/15 12:13:47;;;;;;;2.03;1.13;;;21.40;41.00;;;;;;4997590;28;20076;-66
2022/03/15 12:16:15;;;;;;;1.87;1.07;;;21.40;41.00;;;;;;4998127;28;20103;-66
2022/03/15 12:18:51;;;;;;;1.97;0.90;;;21.40;41.00;;;;;;5001678;28;20033;-65
2022/03/15 12:21:17;;;;;;;1.98;1.00;;;21.40;41.10;;;;;;4998127;28;20292;-66
2022/03/15 12:23:48;;;;;;;1.63;0.95;;;21.40;41.10;;;;;;4997657;28;20037;-66
2022/03/15 12:26:21;;;;;;;1.80;1.00;;;21.40;41.10;;;;;;5000566;28;20037;-65
2022/03/15 12:28:58;;;;;;;2.13;1.00;;;21.40;41.10;;;;;;4998624;28;20040;-66
2022/03/15 12:31:42;;;;;;;2.33;1.00;;;21.40;41.10;;;;;;4998887;28;20459;-65
2022/03/15 12:34:10;;;;;;;2.15;1.10;;;21.40;41.10;;;;;;4996142;28;20022;-65
2022/03/15 12:36:45;;;;;;;1.67;0.90;;;21.40;41.10;;;;;;4997276;28;20038;-62
2022/03/15 12:39:13;;;;;;;1.92;0.93;;;21.40;41.20;;;;;;4997963;28;20034;-66
2022/03/15 12:41:42;;;;;;;1.67;1.00;;;21.40;41.20;;;;;;4999343;28;20038;-66
2022/03/15 12:44:08;;;;;;;2.00;1.10;;;21.40;41.20;;;;;;5000578;28;20212;-66
2022/03/15 12:46:37;;;;;;;1.77;0.80;;;21.40;41.20;;;;;;4999969;28;20028;-66
2022/03/15 12:49:08;;;;;;;1.92;1.08;;;21.40;41.70;;;;;;4998373;28;20029;-63